Time;durP1;ratioP1;P1;durP2;ratioP2;P2;SDS_P1;SDS_P2;PMS_P1;PMS_P2;Temp;Humidity;BMP_temperature;BMP_pressure;BME280_temperature;BME280_humidity;BME280_pressure;Samples;Min_cycle;Max_cycle;Signal;HPM_P1;HPM_P2
2024/04/15 00:01:22;;;;;;;17.10;8.52;;;;;;;19.77;64.30;100027.38;5525128;25;20488;-55
2024/04/15 00:03:51;;;;;;;14.70;7.90;;;;;;;19.76;64.37;100027.53;5525233;25;19993;-54
2024/04/15 00:06:24;;;;;;;12.98;7.13;;;;;;;19.76;64.01;100024.84;5525087;25;19993;-54
2024/04/15 00:08:52;;;;;;;13.80;7.80;;;;;;;19.67;64.43;100015.78;5524989;25;20399;-52
2024/04/15 00:11:23;;;;;;;14.52;7.95;;;;;;;19.64;64.62;100016.97;5524623;25;20004;-55
2024/04/15 00:13:51;;;;;;;15.43;8.13;;;;;;;19.60;64.37;100006.63;5524804;25;20001;-53
2024/04/15 00:16:21;;;;;;;13.32;7.70;;;;;;;19.62;64.37;100002.75;5524743;25;20000;-52
2024/04/15 00:18:49;;;;;;;13.73;7.85;;;;;;;19.61;64.11;99994.78;5524730;25;20034;-53
2024/04/15 00:21:19;;;;;;;13.40;7.68;;;;;;;19.69;63.79;99995.72;5524684;25;20025;-53
2024/04/15 00:23:49;;;;;;;14.18;7.10;;;;;;;19.67;64.02;99995.00;5524570;25;20009;-57
2024/04/15 00:26:20;;;;;;;13.82;7.38;;;;;;;19.63;64.48;99998.19;5524530;25;20330;-57
2024/04/15 00:28:48;;;;;;;12.70;7.10;;;;;;;19.62;64.34;99988.38;5524828;25;20395;-55
2024/04/15 00:31:19;;;;;;;14.40;7.13;;;;;;;19.53;64.74;99982.00;5524361;25;20001;-54
2024/04/15 00:33:47;;;;;;;9.52;6.60;;;;;;;19.52;64.87;99983.03;5524478;25;20008;-55
2024/04/15 00:36:17;;;;;;;11.60;7.15;;;;;;;19.50;65.13;99976.06;5524496;25;20141;-56
2024/04/15 00:38:44;;;;;;;13.93;7.18;;;;;;;19.49;64.68;99977.06;5524034;25;20069;-54
2024/04/15 00:41:18;;;;;;;12.38;6.50;;;;;;;19.51;64.74;99969.66;5523692;25;20061;-55
2024/04/15 00:43:45;;;;;;;15.52;7.35;;;;;;;19.53;64.64;99971.19;5524220;25;19997;-53
2024/04/15 00:46:16;;;;;;;12.52;6.82;;;;;;;19.49;64.88;99967.09;5524285;25;20442;-56
2024/04/15 00:48:44;;;;;;;15.93;6.80;;;;;;;19.40;65.01;99963.47;5524143;25;20356;-55
2024/04/15 00:51:16;;;;;;;16.90;6.90;;;;;;;19.38;65.27;99957.34;5524178;25;20041;-54
2024/04/15 00:53:46;;;;;;;12.57;6.78;;;;;;;19.33;65.50;99954.28;5524365;25;19997;-55
2024/04/15 00:56:22;;;;;;;9.90;6.68;;;;;;;19.33;65.66;99948.88;5524360;25;20482;-56
2024/04/15 00:58:50;;;;;;;13.65;7.13;;;;;;;19.36;65.45;99943.16;5524094;25;20005;-55
2024/04/15 01:01:22;;;;;;;14.18;7.47;;;;;;;19.35;66.78;99941.44;5524148;25;19998;-56
2024/04/15 01:03:51;;;;;;;13.38;6.70;;;;;;;19.25;66.07;99935.28;5524175;25;20489;-56
2024/04/15 01:06:21;;;;;;;12.90;7.18;;;;;;;19.30;66.33;99932.97;5524026;25;20287;-55
2024/04/15 01:08:50;;;;;;;11.63;7.07;;;;;;;19.27;66.36;99927.00;5524007;25;20041;-56
2024/04/15 01:11:23;;;;;;;12.85;7.18;;;;;;;19.28;66.79;99918.75;5523752;25;19994;-55
2024/04/15 01:13:51;;;;;;;12.50;7.28;;;;;;;19.21;66.92;99914.97;5523736;25;19993;-57
2024/04/15 01:16:21;;;;;;;15.82;8.10;;;;;;;19.15;66.92;99908.31;5523520;25;19997;-54
2024/04/15 01:18:49;;;;;;;13.15;7.88;;;;;;;19.10;66.76;99909.78;5523739;25;20005;-56
2024/04/15 01:21:20;;;;;;;12.80;8.00;;;;;;;19.13;67.23;99907.66;5523884;25;20005;-54
2024/04/15 01:23:51;;;;;;;12.00;7.40;;;;;;;19.08;67.63;99901.00;5523741;25;20005;-57
2024/04/15 01:26:21;;;;;;;11.60;7.60;;;;;;;19.07;67.94;99897.44;5523836;25;19997;-55
2024/04/15 01:28:48;;;;;;;15.07;7.55;;;;;;;19.00;68.15;99895.50;5523526;25;20001;-56
2024/04/15 01:31:18;;;;;;;11.10;7.55;;;;;;;18.95;68.49;99887.03;5523553;25;20039;-54
2024/04/15 01:33:46;;;;;;;11.25;7.25;;;;;;;18.92;68.93;99884.66;5523196;25;20335;-54
2024/04/15 01:36:17;;;;;;;11.02;7.22;;;;;;;18.96;68.56;99877.91;5523525;25;20402;-56
2024/04/15 01:38:44;;;;;;;13.52;7.35;;;;;;;18.93;68.97;99881.78;5523217;25;20062;-56
2024/04/15 01:41:18;;;;;;;14.40;8.13;;;;;;;18.92;68.31;99879.25;5523451;25;20084;-55
2024/04/15 01:43:45;;;;;;;;;;;;;;;18.93;68.08;99878.22;5524283;25;19997;-55
2024/04/15 01:46:16;;;;;;;15.65;7.78;;;;;;;18.91;67.99;99872.09;5523563;25;19930;-55
2024/04/15 01:48:44;;;;;;;15.15;8.27;;;;;;;18.81;68.66;99872.19;5523344;25;19993;-55
2024/04/15 01:51:14;;;;;;;12.02;8.65;;;;;;;18.78;68.55;99873.34;5522951;25;19998;-56
2024/04/15 01:53:41;;;;;;;12.30;8.32;;;;;;;18.76;68.52;99878.06;5522579;25;20073;-53
2024/04/15 01:56:11;;;;;;;13.32;8.18;;;;;;;18.71;68.46;99874.97;5523172;25;19997;-53
2024/04/15 01:58:42;;;;;;;13.75;8.38;;;;;;;18.69;68.50;99876.97;5523225;25;20103;-55
2024/04/15 02:01:12;;;;;;;13.13;8.35;;;;;;;18.72;68.43;99873.09;5521748;26;19997;-56
2024/04/15 02:03:42;;;;;;;12.32;8.50;;;;;;;18.75;68.47;99862.88;5523334;25;20010;-53
2024/04/15 02:06:13;;;;;;;12.48;8.30;;;;;;;18.71;68.54;99855.19;5523084;25;20117;-54
2024/04/15 02:08:40;;;;;;;14.15;8.90;;;;;;;18.61;68.74;99849.84;5523072;25;20103;-55
2024/04/15 02:11:10;;;;;;;12.18;8.18;;;;;;;18.70;67.51;99832.75;5523014;25;20023;-55
2024/04/15 02:13:38;;;;;;;11.38;8.63;;;;;;;18.70;68.12;99838.16;5523217;25;20026;-57
2024/04/15 02:16:11;;;;;;;13.05;8.57;;;;;;;18.58;69.09;99831.25;5522960;25;19994;-55
2024/04/15 02:18:39;;;;;;;11.25;7.90;;;;;;;18.58;69.40;99828.56;5522900;25;20004;-55
2024/04/15 02:21:10;;;;;;;12.25;7.75;;;;;;;18.55;69.37;99818.91;5522753;25;20027;-55
2024/04/15 02:23:37;;;;;;;13.35;8.82;;;;;;;18.52;69.41;99818.34;5522765;25;19998;-57
2024/04/15 02:26:07;;;;;;;12.45;8.25;;;;;;;18.45;69.67;99810.03;5522494;25;19997;-55
2024/04/15 02:28:36;;;;;;;12.73;7.47;;;;;;;18.46;69.67;99808.19;5522831;25;20021;-57
2024/04/15 02:31:07;;;;;;;12.95;8.20;;;;;;;18.38;69.99;99800.84;5523045;25;20005;-56
2024/04/15 02:33:38;;;;;;;11.50;8.23;;;;;;;18.36;69.96;99807.41;5522571;25;20021;-57
2024/04/15 02:36:09;;;;;;;13.95;7.90;;;;;;;18.35;70.61;99789.50;5522602;25;20368;-54
2024/04/15 02:38:37;;;;;;;12.30;8.15;;;;;;;18.48;69.82;99798.91;5522659;25;20001;-57
2024/04/15 02:41:07;;;;;;;13.00;8.25;;;;;;;18.46;70.16;99800.06;5522496;25;19999;-56
2024/04/15 02:43:35;;;;;;;13.10;7.90;;;;;;;18.28;70.95;99798.22;5522629;25;20008;-56
2024/04/15 02:46:06;;;;;;;15.65;7.97;;;;;;;18.26;71.86;99797.53;5512958;25;20021;-55
2024/04/15 02:48:33;;;;;;;17.88;8.23;;;;;;;18.38;71.18;99787.34;5485719;26;20009;-55
2024/04/15 02:51:07;;;;;;;12.27;7.50;;;;;;;18.35;71.91;99774.16;5485783;26;20454;-55
2024/04/15 02:53:34;;;;;;;13.00;7.68;;;;;;;18.31;71.38;99779.00;5485601;26;20431;-52
2024/04/15 02:56:05;;;;;;;11.80;7.72;;;;;;;18.22;71.59;99774.50;5485753;26;20002;-54
2024/04/15 02:58:33;;;;;;;13.07;7.95;;;;;;;18.07;73.62;99765.25;5485581;26;20037;-56
2024/04/15 03:01:04;;;;;;;13.55;7.97;;;;;;;18.11;73.62;99749.59;5485443;26;19994;-56
2024/04/15 03:03:32;;;;;;;13.52;8.20;;;;;;;18.12;73.58;99751.28;5485034;26;20424;-57
2024/04/15 03:06:08;;;;;;;13.55;7.55;;;;;;;18.17;73.55;99749.84;5485605;26;20440;-56
2024/04/15 03:08:35;;;;;;;13.38;8.00;;;;;;;18.15;73.17;99746.44;5485252;26;20423;-51
2024/04/15 03:11:12;;;;;;;13.50;8.27;;;;;;;18.14;72.84;99746.56;5485566;26;20516;-56
2024/04/15 03:13:40;;;;;;;13.45;7.78;;;;;;;18.18;72.64;99735.34;5485199;26;20359;-57
2024/04/15 03:16:10;;;;;;;11.98;7.55;;;;;;;18.15;73.35;99730.25;5485370;26;20123;-57
2024/04/15 03:18:52;;;;;;;11.00;7.72;;;;;;;18.18;72.63;99729.94;5485332;26;19998;-57
2024/04/15 03:21:22;;;;;;;12.63;7.82;;;;;;;18.18;72.23;99721.84;5485298;26;20470;-56
2024/04/15 03:23:52;;;;;;;15.35;8.23;;;;;;;18.14;72.84;99723.13;5485149;26;20067;-57
2024/04/15 03:26:23;;;;;;;12.20;8.50;;;;;;;18.15;73.01;99724.88;5484859;26;19998;-55
2024/04/15 03:28:53;;;;;;;13.15;8.43;;;;;;;18.13;73.09;99724.13;5484927;26;20005;-56
2024/04/15 03:31:21;;;;;;;13.60;8.23;;;;;;;18.15;73.15;99730.25;5485019;26;20388;-55
2024/04/15 03:33:52;;;;;;;14.38;8.68;;;;;;;18.14;72.92;99731.22;5484790;26;20029;-52
2024/04/15 03:36:22;;;;;;;12.63;8.73;;;;;;;18.10;73.54;99731.72;5484968;26;20013;-55
2024/04/15 03:38:53;;;;;;;11.98;8.27;;;;;;;18.14;72.71;99717.75;5485048;26;20082;-52
2024/04/15 03:41:20;;;;;;;14.82;9.13;;;;;;;18.13;73.12;99713.34;5484987;26;20024;-57
2024/04/15 03:43:50;;;;;;;13.23;8.88;;;;;;;18.18;72.41;99713.75;5485672;26;20002;-52
2024/04/15 03:46:18;;;;;;;12.95;8.45;;;;;;;18.15;72.64;99705.97;5486048;26;20350;-56
2024/04/15 03:48:48;;;;;;;14.55;8.93;;;;;;;18.02;73.57;99705.47;5485553;26;20006;-54
2024/04/15 03:51:16;;;;;;;14.50;8.82;;;;;;;18.05;73.29;99702.50;5485679;26;20026;-53
2024/04/15 03:53:49;;;;;;;16.55;8.90;;;;;;;18.01;73.34;99695.69;5485419;26;20009;-53
2024/04/15 03:56:17;;;;;;;;;;;;;;;18.01;73.78;99701.09;5486289;26;20071;-56
2024/04/15 03:58:47;;;;;;;14.82;8.40;;;;;;;17.97;72.92;99699.72;5485279;26;19942;-52
2024/04/15 04:01:15;;;;;;;10.27;7.68;;;;;;;18.02;72.82;99687.44;5484773;26;19990;-53
2024/04/15 04:03:46;;;;;;;12.65;7.60;;;;;;;18.02;73.07;99692.84;5484869;26;20455;-52
2024/04/15 04:06:14;;;;;;;15.23;8.55;;;;;;;18.00;72.96;99691.31;5484838;26;20012;-52
2024/04/15 04:08:44;;;;;;;10.50;7.88;;;;;;;17.95;73.41;99688.19;5485169;26;20026;-51
2024/04/15 04:11:14;;;;;;;14.48;7.80;;;;;;;18.00;73.17;99685.91;5485093;26;20005;-53
2024/04/15 04:13:44;;;;;;;10.68;7.25;;;;;;;18.01;72.78;99685.75;5484966;26;20022;-56
2024/04/15 04:16:12;;;;;;;15.57;8.00;;;;;;;18.00;73.22;99681.34;5487291;26;19998;-54
2024/04/15 04:18:44;;;;;;;11.65;7.15;;;;;;;17.79;73.72;99685.34;5488848;26;20005;-55
2024/04/15 04:21:13;;;;;;;11.77;7.20;;;;;;;17.72;74.81;99680.56;5488672;26;19994;-55
2024/04/15 04:23:43;;;;;;;11.38;7.55;;;;;;;17.85;74.57;99668.53;5488732;26;20023;-56
2024/04/15 04:26:10;;;;;;;12.02;7.63;;;;;;;17.83;74.17;99667.84;5488539;26;20009;-54
2024/04/15 04:28:44;;;;;;;11.27;7.30;;;;;;;17.86;74.36;99671.09;5488328;26;20311;-57
2024/04/15 04:31:11;;;;;;;11.02;7.63;;;;;;;17.97;73.58;99664.63;5488719;26;19998;-53
2024/04/15 04:33:42;;;;;;;10.63;7.03;;;;;;;17.97;73.27;99661.94;5488942;26;19994;-56
2024/04/15 04:36:10;;;;;;;11.57;7.30;;;;;;;17.91;73.30;99662.53;5489174;26;19998;-55
2024/04/15 04:38:40;;;;;;;12.80;7.25;;;;;;;17.70;74.78;99662.81;5488444;26;20383;-52
2024/04/15 04:41:14;;;;;;;14.20;7.00;;;;;;;17.78;74.25;99662.06;5488476;26;20125;-56
2024/04/15 04:43:44;;;;;;;11.60;7.10;;;;;;;17.43;76.13;99663.66;5488099;26;19998;-55
2024/04/15 04:46:15;;;;;;;12.88;7.90;;;;;;;17.50;75.38;99653.97;5488431;26;19998;-55
2024/04/15 04:48:43;;;;;;;12.13;7.25;;;;;;;17.56;75.57;99652.50;5488228;26;19994;-54
2024/04/15 04:51:13;;;;;;;10.52;6.97;;;;;;;17.65;75.16;99644.34;5488076;26;19998;-56
2024/04/15 04:53:41;;;;;;;14.38;7.70;;;;;;;17.65;75.23;99654.28;5487913;26;20066;-56
2024/04/15 04:56:12;;;;;;;12.82;7.53;;;;;;;17.67;75.19;99653.16;5488051;26;20483;-56
2024/04/15 04:58:44;;;;;;;13.95;7.60;;;;;;;17.50;76.88;99653.97;5487988;26;20002;-56
2024/04/15 05:01:15;;;;;;;13.27;8.00;;;;;;;17.58;76.44;99653.22;5487652;26;20006;-55
2024/04/15 05:03:44;;;;;;;12.73;7.35;;;;;;;17.63;76.42;99645.50;5488016;26;20625;-57
2024/04/15 05:06:16;;;;;;;11.48;7.03;;;;;;;17.50;77.19;99645.03;5487562;26;19998;-56
2024/04/15 05:08:45;;;;;;;12.18;7.93;;;;;;;17.47;77.21;99643.50;5487966;26;19993;-55
2024/04/15 05:11:16;;;;;;;11.63;7.15;;;;;;;17.48;77.29;99645.19;5487779;26;19998;-56
2024/04/15 05:13:46;;;;;;;14.00;7.22;;;;;;;17.39;77.45;99630.78;5487545;26;20008;-55
2024/04/15 05:16:16;;;;;;;12.85;7.25;;;;;;;17.49;76.67;99624.47;5487717;26;20034;-56
2024/04/15 05:18:44;;;;;;;13.65;8.18;;;;;;;17.62;76.11;99620.41;5486092;26;20002;-57
2024/04/15 05:21:16;;;;;;;15.82;8.00;;;;;;;17.55;76.30;99629.25;5488226;26;20070;-56
2024/04/15 05:23:47;;;;;;;13.43;7.88;;;;;;;17.74;75.14;99621.06;5487687;26;19998;-55
2024/04/15 05:26:17;;;;;;;13.57;8.20;;;;;;;17.66;75.84;99621.81;5487799;26;20030;-56
2024/04/15 05:28:48;;;;;;;13.45;8.02;;;;;;;17.78;75.13;99614.38;5487588;26;20002;-56
2024/04/15 05:31:18;;;;;;;12.82;7.82;;;;;;;17.61;75.99;99613.31;5486911;26;19998;-53
2024/04/15 05:33:46;;;;;;;14.13;8.00;;;;;;;17.70;75.30;99609.72;5487710;26;20356;-57
2024/04/15 05:36:16;;;;;;;13.70;7.75;;;;;;;17.58;75.85;99605.53;5487565;26;20474;-57
2024/04/15 05:38:44;;;;;;;14.18;8.43;;;;;;;17.83;75.40;99603.09;5487586;26;20030;-56
2024/04/15 05:41:15;;;;;;;12.93;7.38;;;;;;;17.63;76.10;99605.91;5487411;26;20461;-56
2024/04/15 05:43:42;;;;;;;10.73;7.43;;;;;;;17.95;74.16;99600.03;5487400;26;20397;-54
2024/04/15 05:46:16;;;;;;;14.75;8.00;;;;;;;17.82;74.93;99598.72;5487616;26;19998;-55
2024/04/15 05:48:43;;;;;;;11.90;7.30;;;;;;;17.90;74.97;99596.09;5487502;26;20005;-56
2024/04/15 05:51:16;;;;;;;16.00;8.07;;;;;;;17.97;73.92;99597.19;5487478;26;20010;-55
2024/04/15 05:53:44;;;;;;;13.57;7.32;;;;;;;18.23;73.24;99592.66;5487272;26;20070;-55
2024/04/15 05:56:14;;;;;;;13.77;6.88;;;;;;;18.23;72.82;99592.66;5484955;26;20012;-57
2024/04/15 05:58:42;;;;;;;11.55;7.78;;;;;;;18.24;71.56;99588.97;5486870;26;19990;-54
2024/04/15 06:01:12;;;;;;;11.35;6.80;;;;;;;18.07;72.54;99586.28;5486741;26;19998;-57
2024/04/15 06:03:45;;;;;;;16.43;7.30;;;;;;;18.13;72.18;99580.25;5487358;26;20050;-55
2024/04/15 06:06:15;;;;;;;12.02;6.95;;;;;;;18.40;70.83;99577.41;5486983;26;20005;-54
2024/04/15 06:08:42;;;;;;;14.43;7.97;;;;;;;18.40;70.39;99576.56;5487078;26;19998;-56
2024/04/15 06:11:13;;;;;;;13.55;7.93;;;;;;;18.10;71.24;99570.63;5486565;26;20410;-55
2024/04/15 06:13:41;;;;;;;12.70;7.43;;;;;;;18.43;70.58;99565.44;5487227;26;20057;-55
2024/04/15 06:16:11;;;;;;;14.45;7.55;;;;;;;18.47;70.38;99569.53;5486942;26;20052;-56
2024/04/15 06:18:38;;;;;;;10.95;6.97;;;;;;;18.60;70.18;99569.94;5486857;26;20005;-57
2024/04/15 06:21:11;;;;;;;12.05;7.28;;;;;;;18.45;69.61;99564.31;5487293;26;20070;-51
2024/04/15 06:23:39;;;;;;;13.90;8.30;;;;;;;18.58;69.09;99575.50;5486966;26;20013;-54
2024/04/15 06:26:10;;;;;;;13.80;7.50;;;;;;;18.58;70.12;99580.06;5486730;26;20005;-59
2024/04/15 06:28:38;;;;;;;12.80;7.78;;;;;;;18.73;68.83;99581.22;5486725;26;19998;-57
2024/04/15 06:31:08;;;;;;;15.25;7.93;;;;;;;18.85;68.39;99579.06;5486689;26;20031;-56
2024/04/15 06:33:36;;;;;;;13.35;7.72;;;;;;;18.95;67.97;99577.09;5486257;26;20047;-55
2024/04/15 06:36:07;;;;;;;14.15;8.13;;;;;;;19.07;67.33;99572.25;5486571;26;20005;-57
2024/04/15 06:38:37;;;;;;;14.30;8.40;;;;;;;19.20;67.93;99571.75;5485473;26;20006;-54
2024/04/15 06:41:08;;;;;;;13.98;7.95;;;;;;;19.27;66.88;99572.81;5486735;26;20005;-55
2024/04/15 06:43:35;;;;;;;11.50;7.00;;;;;;;19.31;65.67;99571.50;5486816;26;20009;-53
2024/04/15 06:46:05;;;;;;;12.80;8.32;;;;;;;19.37;65.57;99565.41;5486717;26;19998;-55
2024/04/15 06:48:34;;;;;;;14.20;8.13;;;;;;;19.20;66.31;99561.78;5486464;26;20009;-56
2024/04/15 06:51:04;;;;;;;14.57;8.02;;;;;;;19.31;65.69;99561.53;5486410;26;19994;-53
2024/04/15 06:53:31;;;;;;;12.75;7.72;;;;;;;19.29;66.17;99552.69;5486220;26;20002;-57
2024/04/15 06:56:05;;;;;;;12.25;7.70;;;;;;;19.36;66.26;99551.03;5486031;26;19994;-57
2024/04/15 06:58:33;;;;;;;12.65;8.00;;;;;;;19.32;64.69;99563.22;5485707;26;20006;-57
2024/04/15 07:01:03;;;;;;;13.93;7.65;;;;;;;19.65;64.01;99557.88;5485606;26;20066;-57
2024/04/15 07:03:31;;;;;;;11.23;7.20;;;;;;;19.75;63.15;99558.56;5485687;26;20071;-55
2024/04/15 07:06:01;;;;;;;16.65;7.35;;;;;;;19.69;62.91;99559.25;5486509;26;20009;-54
2024/04/15 07:08:29;;;;;;;11.75;6.82;;;;;;;19.92;62.60;99557.56;5501522;25;19997;-58
2024/04/15 07:10:59;;;;;;;11.70;6.80;;;;;;;20.01;61.39;99561.13;5485422;26;20006;-55
2024/04/15 07:13:31;;;;;;;11.45;6.85;;;;;;;20.20;61.82;99568.06;5485553;26;20002;-54
2024/04/15 07:16:01;;;;;;;11.88;6.68;;;;;;;20.38;60.58;99551.63;5484586;26;19994;-53
2024/04/15 07:18:29;;;;;;;11.60;7.18;;;;;;;19.98;60.64;99537.97;5484896;26;20005;-58
2024/04/15 07:21:00;;;;;;;10.90;6.70;;;;;;;19.96;61.56;99545.38;5485599;26;20005;-56
2024/04/15 07:23:28;;;;;;;11.95;6.43;;;;;;;20.39;60.30;99535.19;5484769;26;20006;-55
2024/04/15 07:25:59;;;;;;;11.88;7.13;;;;;;;20.32;59.80;99538.75;5484579;26;20009;-55
2024/04/15 07:28:27;;;;;;;14.00;6.97;;;;;;;20.47;58.99;99543.34;5484368;26;20009;-57
2024/04/15 07:31:02;;;;;;;14.75;7.40;;;;;;;20.53;59.48;99526.38;5485477;26;20002;-54
2024/04/15 07:33:30;;;;;;;14.23;7.05;;;;;;;20.49;59.83;99521.50;5486158;26;19998;-55
2024/04/15 07:36:02;;;;;;;12.82;7.18;;;;;;;20.54;59.34;99532.63;5486528;26;19998;-57
2024/04/15 07:38:29;;;;;;;12.98;6.55;;;;;;;20.61;59.00;99543.63;5486734;26;20069;-55
2024/04/15 07:41:01;;;;;;;15.32;7.22;;;;;;;20.46;59.84;99536.22;5485497;26;20013;-55
2024/04/15 07:43:29;;;;;;;12.27;6.65;;;;;;;20.69;58.84;99540.91;5484774;26;20009;-57
2024/04/15 07:46:02;;;;;;;11.75;6.90;;;;;;;20.52;59.15;99529.25;5484803;26;19996;-50
2024/04/15 07:48:30;;;;;;;;;;;;;;;20.53;59.07;99531.78;5485808;26;20006;-56
2024/04/15 07:51:00;;;;;;;11.90;6.72;;;;;;;20.61;59.21;99524.66;5487085;26;19931;-54
2024/04/15 07:53:27;;;;;;;10.95;6.82;;;;;;;20.59;58.88;99508.59;5488805;26;20030;-52
2024/04/15 07:55:57;;;;;;;12.80;7.90;;;;;;;20.62;58.31;99504.69;5488088;26;20008;-52
2024/04/15 07:58:25;;;;;;;16.95;8.32;;;;;;;20.71;58.63;99501.75;5488790;26;20071;-54
2024/04/15 08:00:55;;;;;;;17.17;7.50;;;;;;;20.71;58.43;99500.91;5488429;26;20005;-55
2024/04/15 08:03:26;;;;;;;14.68;7.30;;;;;;;20.87;58.15;99506.28;5488899;26;20030;-54
2024/04/15 08:05:58;;;;;;;13.68;7.57;;;;;;;20.91;58.27;99498.63;5488186;26;20062;-55
2024/04/15 08:08:26;;;;;;;14.83;7.33;;;;;;;20.83;58.34;99499.50;5488782;26;20002;-55
2024/04/15 08:10:56;;;;;;;13.23;7.30;;;;;;;20.77;58.28;99500.22;5488949;26;20435;-53
2024/04/15 08:13:24;;;;;;;10.63;7.18;;;;;;;20.76;58.21;99498.53;5489003;26;20034;-59
2024/04/15 08:15:55;;;;;;;11.10;7.00;;;;;;;20.95;57.78;99503.53;5487953;26;20009;-56
2024/04/15 08:18:25;;;;;;;13.30;6.75;;;;;;;21.04;57.63;99491.63;5488327;26;20458;-54
2024/04/15 08:20:56;;;;;;;13.20;6.72;;;;;;;20.96;57.91;99488.97;5488292;26;20531;-55
2024/04/15 08:23:24;;;;;;;13.80;6.82;;;;;;;20.96;58.46;99491.66;5488310;26;20523;-54
2024/04/15 08:25:55;;;;;;;13.70;6.75;;;;;;;20.75;58.43;99491.41;5488365;26;20455;-55
2024/04/15 08:28:23;;;;;;;13.98;6.82;;;;;;;20.72;58.83;99495.31;5488375;26;19998;-54
2024/04/15 08:30:54;;;;;;;13.40;6.93;;;;;;;20.58;59.13;99496.91;5488582;26;19998;-52
2024/04/15 08:33:22;;;;;;;14.57;7.43;;;;;;;20.63;59.74;99498.22;5487758;26;20033;-54
2024/04/15 08:35:55;;;;;;;13.48;7.32;;;;;;;20.70;59.36;99488.41;5488265;26;20002;-53
2024/04/15 08:38:23;;;;;;;12.73;6.78;;;;;;;20.79;59.22;99504.44;5488440;26;20066;-50
2024/04/15 08:41:00;;;;;;;12.32;7.03;;;;;;;20.68;59.47;99501.28;5488418;26;19998;-54
2024/04/15 08:43:28;;;;;;;9.73;6.90;;;;;;;20.44;60.46;99504.91;5488300;26;19995;-52
2024/04/15 08:46:01;;;;;;;15.10;6.85;;;;;;;20.41;60.29;99506.06;5488320;26;20082;-55
2024/04/15 08:48:29;;;;;;;12.13;7.03;;;;;;;20.46;61.41;99506.44;5488700;26;19998;-57
2024/04/15 08:51:02;;;;;;;11.70;6.95;;;;;;;20.73;60.16;99501.59;5488983;26;19998;-53
2024/04/15 08:53:30;;;;;;;11.95;7.20;;;;;;;20.83;60.24;99510.34;5489492;26;20014;-56
2024/04/15 08:56:01;;;;;;;11.90;7.18;;;;;;;20.96;60.10;99509.81;5488801;26;20009;-54
2024/04/15 08:58:29;;;;;;;10.68;6.90;;;;;;;21.06;59.94;99505.84;5488841;26;19994;-55
2024/04/15 09:01:01;;;;;;;12.65;6.80;;;;;;;21.19;59.45;99509.84;5488060;26;20681;-53
2024/04/15 09:03:30;;;;;;;14.80;6.78;;;;;;;21.32;59.04;99510.13;5488846;26;20031;-53
2024/04/15 09:06:03;;;;;;;12.20;6.72;;;;;;;21.34;58.99;99505.38;5488186;26;20006;-55
2024/04/15 09:08:30;;;;;;;10.57;5.93;;;;;;;21.40;59.21;99496.50;5489227;26;19994;-50
2024/04/15 09:11:02;;;;;;;10.05;6.45;;;;;;;21.33;58.86;99506.41;5488918;26;19994;-53
2024/04/15 09:13:30;;;;;;;10.77;6.38;;;;;;;21.54;58.90;99500.31;5488964;26;20451;-55
2024/04/15 09:16:01;;;;;;;12.63;6.78;;;;;;;21.73;58.60;99505.28;5488463;26;20041;-55
2024/04/15 09:18:29;;;;;;;13.25;6.18;;;;;;;21.96;57.56;99505.22;5488650;26;20408;-53
2024/04/15 09:21:02;;;;;;;12.82;6.45;;;;;;;21.88;57.37;99503.44;5488761;26;20046;-53
2024/04/15 09:23:33;;;;;;;12.27;6.25;;;;;;;21.97;56.88;99504.19;5487819;26;20350;-53
2024/04/15 09:26:03;;;;;;;13.50;5.85;;;;;;;22.04;56.52;99505.16;5488241;26;20010;-51
2024/04/15 09:28:31;;;;;;;9.95;5.90;;;;;;;22.17;56.22;99496.41;5488679;26;20361;-56
2024/04/15 09:31:01;;;;;;;9.77;5.93;;;;;;;22.30;55.61;99493.06;5488527;26;20001;-54
2024/04/15 09:33:29;;;;;;;8.00;5.57;;;;;;;22.34;55.96;99488.94;5488057;26;19998;-57
2024/04/15 09:36:02;;;;;;;11.45;5.88;;;;;;;22.19;55.52;99487.03;5487717;26;19998;-55
2024/04/15 09:38:30;;;;;;;;;;;;;;;22.34;55.34;99487.06;5488154;26;19998;-55
2024/04/15 09:41:01;;;;;;;9.15;5.88;;;;;;;22.53;54.50;99499.25;5488364;26;19923;-53
2024/04/15 09:43:31;;;;;;;10.98;5.80;;;;;;;22.64;54.61;99487.91;5488203;26;20034;-56
2024/04/15 09:46:02;;;;;;;9.68;5.60;;;;;;;22.91;54.44;99485.56;5488207;26;20339;-57
2024/04/15 09:48:31;;;;;;;13.05;6.00;;;;;;;22.76;54.56;99480.94;5488150;26;20320;-53
2024/04/15 09:51:09;;;;;;;12.35;6.13;;;;;;;22.84;54.15;99483.59;5488449;26;20013;-54
2024/04/15 09:53:38;;;;;;;12.68;6.60;;;;;;;22.98;53.65;99486.50;5487979;26;20046;-55
2024/04/15 09:56:14;;;;;;;10.85;6.20;;;;;;;23.13;53.51;99487.28;5487343;26;19994;-54
2024/04/15 09:58:44;;;;;;;10.05;5.93;;;;;;;23.15;53.45;99490.66;5487098;26;19998;-55
2024/04/15 10:01:19;;;;;;;13.15;5.80;;;;;;;23.37;52.66;99486.94;5488480;26;19997;-54
2024/04/15 10:03:51;;;;;;;9.90;5.45;;;;;;;23.58;51.87;99485.28;5488358;26;20344;-57
2024/04/15 10:06:33;;;;;;;13.55;6.45;;;;;;;23.74;52.05;99476.00;5488584;26;19998;-57
2024/04/15 10:09:01;;;;;;;10.77;5.68;;;;;;;23.72;51.59;99473.47;5488251;26;20439;-54
2024/04/15 10:11:32;;;;;;;12.05;5.95;;;;;;;23.79;51.00;99484.44;5488465;26;19998;-55
2024/04/15 10:13:59;;;;;;;10.30;5.43;;;;;;;23.87;51.03;99482.44;5486591;26;20085;-55
2024/04/15 10:16:30;;;;;;;10.35;5.50;;;;;;;24.03;50.21;99478.59;5488142;26;20406;-56
2024/04/15 10:19:08;;;;;;;11.32;5.78;;;;;;;24.22;50.10;99477.03;5492762;26;20494;-53
2024/04/15 10:21:42;;;;;;;10.38;5.80;;;;;;;24.23;50.20;99482.28;5502980;26;20012;-56
2024/04/15 10:24:12;;;;;;;10.25;5.30;;;;;;;24.49;49.95;99470.72;5497311;26;20016;-53
2024/04/15 10:26:44;;;;;;;11.05;5.60;;;;;;;24.58;49.57;99473.31;5511694;26;20016;-56
2024/04/15 10:29:17;;;;;;;10.50;5.60;;;;;;;24.58;49.52;99467.84;5524785;25;20010;-57
2024/04/15 10:31:51;;;;;;;14.38;5.30;;;;;;;24.69;49.25;99470.84;5524629;25;19993;-57
2024/04/15 10:34:21;;;;;;;10.10;4.97;;;;;;;24.89;49.41;99470.94;5524603;25;19993;-57
2024/04/15 10:36:57;;;;;;;11.93;5.38;;;;;;;25.07;48.96;99463.06;5523563;25;20466;-55
2024/04/15 10:39:25;;;;;;;14.82;5.28;;;;;;;25.22;49.31;99470.25;5522945;25;19994;-56
2024/04/15 10:41:57;;;;;;;9.80;5.30;;;;;;;25.27;47.99;99473.19;5522883;25;19997;-57
2024/04/15 10:44:25;;;;;;;11.00;6.00;;;;;;;25.23;47.84;99461.00;5523445;25;19997;-56
2024/04/15 10:46:55;;;;;;;10.23;5.05;;;;;;;25.37;47.93;99470.91;5523322;25;20141;-58
2024/04/15 10:49:26;;;;;;;9.30;4.70;;;;;;;25.36;46.44;99477.41;5523708;25;19997;-52
2024/04/15 10:51:58;;;;;;;8.73;4.70;;;;;;;25.46;46.23;99477.84;5523038;25;20021;-54
2024/04/15 10:54:26;;;;;;;7.45;4.72;;;;;;;25.54;46.89;99463.16;5512064;25;20012;-57
2024/04/15 10:56:56;;;;;;;12.23;4.78;;;;;;;25.54;46.13;99458.53;5505281;25;20035;-54
2024/04/15 10:59:24;;;;;;;14.18;4.75;;;;;;;25.68;46.29;99460.25;5506825;26;20002;-57
2024/04/15 11:01:55;;;;;;;8.57;4.20;;;;;;;25.76;46.74;99455.66;5505573;26;19998;-58
2024/04/15 11:04:23;;;;;;;9.80;4.90;;;;;;;25.87;46.63;99463.25;5505070;26;20522;-55
2024/04/15 11:06:53;;;;;;;9.95;4.90;;;;;;;25.46;46.03;99453.28;5502108;25;20001;-56
2024/04/15 11:09:23;;;;;;;10.27;4.82;;;;;;;25.30;46.85;99445.50;5503921;26;20468;-58
2024/04/15 11:11:53;;;;;;;7.97;4.40;;;;;;;25.72;46.58;99454.41;5501748;25;20056;-58
2024/04/15 11:14:21;;;;;;;12.52;5.15;;;;;;;25.92;46.54;99449.78;5503003;25;20032;-54
2024/04/15 11:16:55;;;;;;;10.48;5.25;;;;;;;26.05;46.63;99438.81;5504880;26;20023;-57
2024/04/15 11:19:23;;;;;;;11.23;5.70;;;;;;;25.62;46.81;99439.25;5503553;26;20528;-52
2024/04/15 11:22:04;;;;;;;16.58;5.82;;;;;;;25.81;47.13;99439.50;5501283;25;20078;-55
2024/04/15 11:24:36;;;;;;;15.32;6.55;;;;;;;25.51;47.79;99436.28;5500676;25;20531;-56
2024/04/15 11:27:09;;;;;;;21.02;7.03;;;;;;;25.49;48.02;99435.66;5502650;25;20334;-53
2024/04/15 11:29:38;;;;;;;14.30;6.10;;;;;;;25.72;47.71;99430.66;5499719;25;20039;-55
2024/04/15 11:32:26;;;;;;;13.88;7.10;;;;;;;25.79;47.83;99436.13;5485883;26;20070;-57
2024/04/15 11:34:54;;;;;;;12.80;6.40;;;;;;;25.83;47.65;99432.75;5484856;26;20359;-55
2024/04/15 11:37:24;;;;;;;20.73;7.40;;;;;;;25.43;48.83;99434.59;5484904;26;20133;-57
2024/04/15 11:39:55;;;;;;;27.15;7.30;;;;;;;25.81;48.34;99420.38;5485214;26;19998;-58